sensor_id;sensor_type;location;lat;lon;timestamp;P1;durP1;ratioP1;P2;durP2;ratioP2
3589;SDS011;1809;48.470;9.226;2023-03-19T00:01:40;4.20;;;3.87;;
3589;SDS011;1809;48.470;9.226;2023-03-19T00:04:06;5.33;;;4.27;;
3589;SDS011;1809;48.470;9.226;2023-03-19T00:06:31;8.70;;;3.17;;
3589;SDS011;1809;48.470;9.226;2023-03-19T00:08:57;12.60;;;4.43;;
3589;SDS011;1809;48.470;9.226;2023-03-19T00:11:22;7.70;;;4.07;;
3589;SDS011;1809;48.470;9.226;2023-03-19T00:13:47;6.17;;;3.80;;
3589;SDS011;1809;48.470;9.226;2023-03-19T00:16:13;7.40;;;4.00;;
3589;SDS011;1809;48.470;9.226;2023-03-19T00:18:38;5.60;;;3.70;;
3589;SDS011;1809;48.470;9.226;2023-03-19T00:21:03;5.50;;;3.93;;
3589;SDS011;1809;48.470;9.226;2023-03-19T00:23:29;5.97;;;4.23;;
3589;SDS011;1809;48.470;9.226;2023-03-19T00:25:55;5.53;;;3.27;;
3589;SDS011;1809;48.470;9.226;2023-03-19T00:28:20;9.30;;;3.87;;
3589;SDS011;1809;48.470;9.226;2023-03-19T00:30:45;6.40;;;4.03;;
3589;SDS011;1809;48.470;9.226;2023-03-19T00:33:11;3.87;;;3.37;;
3589;SDS011;1809;48.470;9.226;2023-03-19T00:35:37;7.13;;;4.80;;
3589;SDS011;1809;48.470;9.226;2023-03-19T00:38:04;6.33;;;3.90;;
3589;SDS011;1809;48.470;9.226;2023-03-19T00:40:29;3.80;;;3.50;;
3589;SDS011;1809;48.470;9.226;2023-03-19T00:42:55;6.03;;;4.20;;
3589;SDS011;1809;48.470;9.226;2023-03-19T00:45:20;6.00;;;3.23;;
3589;SDS011;1809;48.470;9.226;2023-03-19T00:47:45;6.37;;;3.63;;
3589;SDS011;1809;48.470;9.226;2023-03-19T00:50:11;15.27;;;4.37;;
3589;SDS011;1809;48.470;9.226;2023-03-19T00:52:36;9.83;;;4.70;;
3589;SDS011;1809;48.470;9.226;2023-03-19T00:55:01;4.80;;;3.70;;
3589;SDS011;1809;48.470;9.226;2023-03-19T00:57:27;12.00;;;4.13;;
3589;SDS011;1809;48.470;9.226;2023-03-19T00:59:52;5.87;;;3.80;;
3589;SDS011;1809;48.470;9.226;2023-03-19T01:02:18;11.73;;;5.67;;
3589;SDS011;1809;48.470;9.226;2023-03-19T01:04:43;9.50;;;5.13;;
3589;SDS011;1809;48.470;9.226;2023-03-19T01:07:08;6.00;;;4.80;;
3589;SDS011;1809;48.470;9.226;2023-03-19T01:09:34;10.53;;;4.60;;
3589;SDS011;1809;48.470;9.226;2023-03-19T01:12:00;10.13;;;4.93;;
3589;SDS011;1809;48.470;9.226;2023-03-19T01:14:28;4.73;;;3.30;;
3589;SDS011;1809;48.470;9.226;2023-03-19T01:16:54;4.53;;;2.67;;
3589;SDS011;1809;48.470;9.226;2023-03-19T01:19:20;3.73;;;3.23;;
3589;SDS011;1809;48.470;9.226;2023-03-19T01:21:46;3.43;;;2.87;;
3589;SDS011;1809;48.470;9.226;2023-03-19T01:24:13;3.50;;;2.70;;
3589;SDS011;1809;48.470;9.226;2023-03-19T01:26:40;11.43;;;3.40;;
3589;SDS011;1809;48.470;9.226;2023-03-19T01:29:05;6.90;;;3.53;;
3589;SDS011;1809;48.470;9.226;2023-03-19T01:31:31;5.33;;;3.60;;
3589;SDS011;1809;48.470;9.226;2023-03-19T01:33:56;5.27;;;2.97;;
3589;SDS011;1809;48.470;9.226;2023-03-19T01:36:21;5.17;;;3.40;;
3589;SDS011;1809;48.470;9.226;2023-03-19T01:38:47;8.60;;;3.37;;
3589;SDS011;1809;48.470;9.226;2023-03-19T01:41:13;5.20;;;2.90;;
3589;SDS011;1809;48.470;9.226;2023-03-19T01:43:38;4.33;;;3.93;;
3589;SDS011;1809;48.470;9.226;2023-03-19T01:46:06;4.70;;;4.30;;
3589;SDS011;1809;48.470;9.226;2023-03-19T01:48:40;5.80;;;3.93;;
3589;SDS011;1809;48.470;9.226;2023-03-19T01:51:08;6.13;;;4.10;;
3589;SDS011;1809;48.470;9.226;2023-03-19T01:53:38;7.70;;;3.87;;
3589;SDS011;1809;48.470;9.226;2023-03-19T01:56:21;6.47;;;3.37;;
3589;SDS011;1809;48.470;9.226;2023-03-19T01:58:51;6.30;;;3.97;;
3589;SDS011;1809;48.470;9.226;2023-03-19T02:01:21;11.73;;;4.43;;
3589;SDS011;1809;48.470;9.226;2023-03-19T02:03:47;6.33;;;4.40;;
3589;SDS011;1809;48.470;9.226;2023-03-19T02:06:13;7.30;;;4.40;;
3589;SDS011;1809;48.470;9.226;2023-03-19T02:08:39;5.23;;;4.07;;
3589;SDS011;1809;48.470;9.226;2023-03-19T02:11:06;5.53;;;3.73;;
3589;SDS011;1809;48.470;9.226;2023-03-19T02:13:32;9.40;;;4.30;;
3589;SDS011;1809;48.470;9.226;2023-03-19T02:15:58;6.10;;;4.57;;
3589;SDS011;1809;48.470;9.226;2023-03-19T02:18:24;7.90;;;5.30;;
3589;SDS011;1809;48.470;9.226;2023-03-19T02:23:34;14.40;;;4.67;;
3589;SDS011;1809;48.470;9.226;2023-03-19T02:28:34;8.80;;;4.40;;
3589;SDS011;1809;48.470;9.226;2023-03-19T02:31:04;10.43;;;5.07;;
3589;SDS011;1809;48.470;9.226;2023-03-19T02:33:30;7.07;;;5.10;;
3589;SDS011;1809;48.470;9.226;2023-03-19T02:35:56;7.23;;;3.77;;
3589;SDS011;1809;48.470;9.226;2023-03-19T02:38:23;7.47;;;3.97;;
3589;SDS011;1809;48.470;9.226;2023-03-19T02:40:56;9.07;;;4.07;;
3589;SDS011;1809;48.470;9.226;2023-03-19T02:43:24;3.70;;;3.40;;
3589;SDS011;1809;48.470;9.226;2023-03-19T02:45:51;11.27;;;4.30;;
3589;SDS011;1809;48.470;9.226;2023-03-19T02:48:16;8.53;;;3.63;;
3589;SDS011;1809;48.470;9.226;2023-03-19T02:50:42;9.23;;;5.73;;
3589;SDS011;1809;48.470;9.226;2023-03-19T02:53:07;11.33;;;7.13;;
3589;SDS011;1809;48.470;9.226;2023-03-19T02:55:33;12.47;;;7.30;;
3589;SDS011;1809;48.470;9.226;2023-03-19T02:57:59;11.60;;;6.53;;
3589;SDS011;1809;48.470;9.226;2023-03-19T03:00:24;12.93;;;6.77;;
3589;SDS011;1809;48.470;9.226;2023-03-19T03:02:50;8.80;;;5.90;;
3589;SDS011;1809;48.470;9.226;2023-03-19T03:05:15;6.63;;;5.10;;
3589;SDS011;1809;48.470;9.226;2023-03-19T03:07:41;9.10;;;5.20;;
3589;SDS011;1809;48.470;9.226;2023-03-19T03:10:09;12.87;;;5.27;;
3589;SDS011;1809;48.470;9.226;2023-03-19T03:12:35;10.83;;;5.77;;
3589;SDS011;1809;48.470;9.226;2023-03-19T03:15:00;10.50;;;5.43;;
3589;SDS011;1809;48.470;9.226;2023-03-19T03:17:26;10.40;;;4.37;;
3589;SDS011;1809;48.470;9.226;2023-03-19T03:19:51;7.83;;;5.80;;
3589;SDS011;1809;48.470;9.226;2023-03-19T03:22:17;9.30;;;5.37;;
3589;SDS011;1809;48.470;9.226;2023-03-19T03:24:42;5.87;;;5.27;;
3589;SDS011;1809;48.470;9.226;2023-03-19T03:27:08;6.53;;;5.10;;
3589;SDS011;1809;48.470;9.226;2023-03-19T03:29:33;6.37;;;5.13;;
3589;SDS011;1809;48.470;9.226;2023-03-19T03:31:58;15.40;;;5.20;;
3589;SDS011;1809;48.470;9.226;2023-03-19T03:34:24;13.80;;;5.30;;
3589;SDS011;1809;48.470;9.226;2023-03-19T03:36:49;13.27;;;6.10;;
3589;SDS011;1809;48.470;9.226;2023-03-19T03:39:18;8.20;;;5.00;;
3589;SDS011;1809;48.470;9.226;2023-03-19T03:41:43;10.00;;;5.50;;
3589;SDS011;1809;48.470;9.226;2023-03-19T03:44:09;11.60;;;5.63;;
3589;SDS011;1809;48.470;9.226;2023-03-19T03:46:35;8.73;;;5.50;;
3589;SDS011;1809;48.470;9.226;2023-03-19T03:49:01;7.63;;;5.77;;
3589;SDS011;1809;48.470;9.226;2023-03-19T03:51:30;6.73;;;6.03;;
3589;SDS011;1809;48.470;9.226;2023-03-19T03:53:56;7.07;;;5.60;;
3589;SDS011;1809;48.470;9.226;2023-03-19T03:56:25;9.80;;;6.03;;
3589;SDS011;1809;48.470;9.226;2023-03-19T03:58:51;5.23;;;4.73;;
3589;SDS011;1809;48.470;9.226;2023-03-19T04:01:17;5.90;;;5.37;;
3589;SDS011;1809;48.470;9.226;2023-03-19T04:03:43;8.93;;;5.40;;
3589;SDS011;1809;48.470;9.226;2023-03-19T04:06:16;7.40;;;5.77;;
3589;SDS011;1809;48.470;9.226;2023-03-19T04:08:43;6.30;;;5.40;;
3589;SDS011;1809;48.470;9.226;2023-03-19T04:11:09;7.97;;;5.40;;
3589;SDS011;1809;48.470;9.226;2023-03-19T04:13:35;10.70;;;6.27;;
3589;SDS011;1809;48.470;9.226;2023-03-19T04:16:05;7.03;;;5.43;;
3589;SDS011;1809;48.470;9.226;2023-03-19T04:18:35;7.30;;;5.80;;
3589;SDS011;1809;48.470;9.226;2023-03-19T04:21:01;8.30;;;5.80;;
3589;SDS011;1809;48.470;9.226;2023-03-19T04:23:28;9.40;;;5.57;;
3589;SDS011;1809;48.470;9.226;2023-03-19T04:25:57;6.10;;;5.10;;
3589;SDS011;1809;48.470;9.226;2023-03-19T04:28:24;8.87;;;5.10;;
3589;SDS011;1809;48.470;9.226;2023-03-19T04:30:50;10.73;;;4.53;;
3589;SDS011;1809;48.470;9.226;2023-03-19T04:33:15;4.97;;;4.50;;
3589;SDS011;1809;48.470;9.226;2023-03-19T04:35:42;5.73;;;5.07;;
3589;SDS011;1809;48.470;9.226;2023-03-19T04:38:08;5.33;;;4.17;;
3589;SDS011;1809;48.470;9.226;2023-03-19T04:40:33;4.60;;;4.23;;
3589;SDS011;1809;48.470;9.226;2023-03-19T04:43:03;4.10;;;3.80;;
3589;SDS011;1809;48.470;9.226;2023-03-19T04:45:32;4.00;;;3.70;;
3589;SDS011;1809;48.470;9.226;2023-03-19T04:47:58;4.33;;;3.47;;
3589;SDS011;1809;48.470;9.226;2023-03-19T04:50:25;3.80;;;3.50;;
3589;SDS011;1809;48.470;9.226;2023-03-19T04:52:52;5.53;;;3.73;;
3589;SDS011;1809;48.470;9.226;2023-03-19T04:55:17;4.20;;;3.80;;
3589;SDS011;1809;48.470;9.226;2023-03-19T04:57:43;3.63;;;3.37;;
3589;SDS011;1809;48.470;9.226;2023-03-19T05:00:08;4.20;;;3.73;;
3589;SDS011;1809;48.470;9.226;2023-03-19T05:02:39;5.10;;;3.20;;
3589;SDS011;1809;48.470;9.226;2023-03-19T05:05:07;4.17;;;3.10;;
3589;SDS011;1809;48.470;9.226;2023-03-19T05:07:36;5.13;;;3.07;;
3589;SDS011;1809;48.470;9.226;2023-03-19T05:10:08;3.97;;;3.20;;
3589;SDS011;1809;48.470;9.226;2023-03-19T05:12:34;5.43;;;3.60;;
3589;SDS011;1809;48.470;9.226;2023-03-19T05:15:01;6.20;;;3.27;;
3589;SDS011;1809;48.470;9.226;2023-03-19T05:17:29;5.23;;;3.90;;
3589;SDS011;1809;48.470;9.226;2023-03-19T05:19:55;4.90;;;3.20;;
3589;SDS011;1809;48.470;9.226;2023-03-19T05:22:21;5.40;;;3.50;;
3589;SDS011;1809;48.470;9.226;2023-03-19T05:24:47;3.27;;;3.07;;
3589;SDS011;1809;48.470;9.226;2023-03-19T05:27:13;4.17;;;3.87;;
3589;SDS011;1809;48.470;9.226;2023-03-19T05:29:42;5.40;;;3.27;;
3589;SDS011;1809;48.470;9.226;2023-03-19T05:32:11;8.43;;;3.23;;
3589;SDS011;1809;48.470;9.226;2023-03-19T05:34:37;5.57;;;3.33;;
3589;SDS011;1809;48.470;9.226;2023-03-19T05:37:03;8.33;;;3.30;;
3589;SDS011;1809;48.470;9.226;2023-03-19T05:39:32;8.93;;;3.70;;
3589;SDS011;1809;48.470;9.226;2023-03-19T05:41:58;6.87;;;3.27;;
3589;SDS011;1809;48.470;9.226;2023-03-19T05:44:26;4.47;;;3.13;;
3589;SDS011;1809;48.470;9.226;2023-03-19T05:46:52;8.40;;;3.53;;
3589;SDS011;1809;48.470;9.226;2023-03-19T05:49:18;3.30;;;3.10;;
3589;SDS011;1809;48.470;9.226;2023-03-19T05:51:44;4.70;;;3.07;;
3589;SDS011;1809;48.470;9.226;2023-03-19T05:54:09;3.83;;;2.90;;
3589;SDS011;1809;48.470;9.226;2023-03-19T05:56:35;2.70;;;2.50;;
3589;SDS011;1809;48.470;9.226;2023-03-19T05:59:01;6.50;;;3.00;;
3589;SDS011;1809;48.470;9.226;2023-03-19T06:01:27;2.57;;;2.40;;
3589;SDS011;1809;48.470;9.226;2023-03-19T06:03:52;3.10;;;2.30;;
3589;SDS011;1809;48.470;9.226;2023-03-19T06:06:18;8.13;;;2.90;;
3589;SDS011;1809;48.470;9.226;2023-03-19T06:08:43;2.27;;;2.13;;
3589;SDS011;1809;48.470;9.226;2023-03-19T06:11:09;6.07;;;2.50;;
3589;SDS011;1809;48.470;9.226;2023-03-19T06:13:34;3.67;;;2.30;;
3589;SDS011;1809;48.470;9.226;2023-03-19T06:16:00;2.83;;;2.50;;
3589;SDS011;1809;48.470;9.226;2023-03-19T06:18:25;4.60;;;2.00;;
3589;SDS011;1809;48.470;9.226;2023-03-19T06:20:51;2.50;;;1.90;;
3589;SDS011;1809;48.470;9.226;2023-03-19T06:23:17;2.90;;;1.83;;
3589;SDS011;1809;48.470;9.226;2023-03-19T06:25:42;1.80;;;1.70;;
3589;SDS011;1809;48.470;9.226;2023-03-19T06:28:08;2.13;;;1.93;;
3589;SDS011;1809;48.470;9.226;2023-03-19T06:30:34;2.20;;;2.10;;
3589;SDS011;1809;48.470;9.226;2023-03-19T06:33:00;2.40;;;2.10;;
3589;SDS011;1809;48.470;9.226;2023-03-19T06:35:25;5.27;;;1.60;;
3589;SDS011;1809;48.470;9.226;2023-03-19T06:37:51;2.87;;;1.37;;
3589;SDS011;1809;48.470;9.226;2023-03-19T06:40:17;3.33;;;1.37;;
3589;SDS011;1809;48.470;9.226;2023-03-19T06:42:46;3.20;;;1.27;;
3589;SDS011;1809;48.470;9.226;2023-03-19T06:45:12;1.50;;;1.40;;
3589;SDS011;1809;48.470;9.226;2023-03-19T06:47:43;2.00;;;1.90;;
3589;SDS011;1809;48.470;9.226;2023-03-19T06:50:11;3.87;;;1.97;;
3589;SDS011;1809;48.470;9.226;2023-03-19T06:52:38;2.23;;;1.70;;
3589;SDS011;1809;48.470;9.226;2023-03-19T06:55:05;2.13;;;1.73;;
3589;SDS011;1809;48.470;9.226;2023-03-19T06:57:32;2.97;;;1.50;;
3589;SDS011;1809;48.470;9.226;2023-03-19T06:59:58;1.93;;;1.73;;
3589;SDS011;1809;48.470;9.226;2023-03-19T07:02:23;2.53;;;1.90;;
3589;SDS011;1809;48.470;9.226;2023-03-19T07:04:52;2.83;;;2.63;;
3589;SDS011;1809;48.470;9.226;2023-03-19T07:07:18;3.00;;;1.50;;
3589;SDS011;1809;48.470;9.226;2023-03-19T07:09:46;2.67;;;2.37;;
3589;SDS011;1809;48.470;9.226;2023-03-19T07:12:17;2.40;;;2.20;;
3589;SDS011;1809;48.470;9.226;2023-03-19T07:14:43;1.90;;;1.80;;
3589;SDS011;1809;48.470;9.226;2023-03-19T07:17:08;3.03;;;1.90;;
3589;SDS011;1809;48.470;9.226;2023-03-19T07:19:34;2.37;;;2.07;;
3589;SDS011;1809;48.470;9.226;2023-03-19T07:22:02;2.80;;;2.50;;
3589;SDS011;1809;48.470;9.226;2023-03-19T07:24:28;11.83;;;6.10;;
3589;SDS011;1809;48.470;9.226;2023-03-19T07:26:56;9.37;;;4.70;;
3589;SDS011;1809;48.470;9.226;2023-03-19T07:29:22;5.23;;;3.70;;
3589;SDS011;1809;48.470;9.226;2023-03-19T07:31:48;9.10;;;2.90;;
3589;SDS011;1809;48.470;9.226;2023-03-19T07:34:14;5.47;;;3.07;;
3589;SDS011;1809;48.470;9.226;2023-03-19T07:36:39;2.20;;;2.07;;
3589;SDS011;1809;48.470;9.226;2023-03-19T07:39:08;2.70;;;2.20;;
3589;SDS011;1809;48.470;9.226;2023-03-19T07:41:34;4.20;;;1.97;;
3589;SDS011;1809;48.470;9.226;2023-03-19T07:44:05;2.47;;;2.10;;
3589;SDS011;1809;48.470;9.226;2023-03-19T07:46:31;2.37;;;1.80;;
3589;SDS011;1809;48.470;9.226;2023-03-19T07:48:56;4.30;;;2.10;;
3589;SDS011;1809;48.470;9.226;2023-03-19T07:51:22;3.27;;;1.77;;
3589;SDS011;1809;48.470;9.226;2023-03-19T07:53:50;6.00;;;2.57;;
3589;SDS011;1809;48.470;9.226;2023-03-19T07:56:16;2.50;;;2.30;;
3589;SDS011;1809;48.470;9.226;2023-03-19T07:58:41;1.93;;;1.83;;
3589;SDS011;1809;48.470;9.226;2023-03-19T08:01:07;2.20;;;2.00;;
3589;SDS011;1809;48.470;9.226;2023-03-19T08:03:32;5.03;;;2.50;;
3589;SDS011;1809;48.470;9.226;2023-03-19T08:05:58;2.43;;;2.23;;
3589;SDS011;1809;48.470;9.226;2023-03-19T08:08:23;2.73;;;2.63;;
3589;SDS011;1809;48.470;9.226;2023-03-19T08:10:51;1.63;;;1.53;;
3589;SDS011;1809;48.470;9.226;2023-03-19T08:13:18;2.50;;;2.30;;
3589;SDS011;1809;48.470;9.226;2023-03-19T08:15:43;3.60;;;2.00;;
3589;SDS011;1809;48.470;9.226;2023-03-19T08:18:09;3.50;;;2.27;;
3589;SDS011;1809;48.470;9.226;2023-03-19T08:20:35;1.93;;;1.70;;
3589;SDS011;1809;48.470;9.226;2023-03-19T08:23:00;2.30;;;2.10;;
3589;SDS011;1809;48.470;9.226;2023-03-19T08:25:26;3.00;;;2.23;;
3589;SDS011;1809;48.470;9.226;2023-03-19T08:27:56;4.00;;;2.10;;
3589;SDS011;1809;48.470;9.226;2023-03-19T08:30:22;2.30;;;1.57;;
3589;SDS011;1809;48.470;9.226;2023-03-19T08:32:48;2.77;;;2.00;;
3589;SDS011;1809;48.470;9.226;2023-03-19T08:35:14;2.17;;;2.07;;
3589;SDS011;1809;48.470;9.226;2023-03-19T08:37:40;7.57;;;1.90;;
3589;SDS011;1809;48.470;9.226;2023-03-19T08:40:10;2.53;;;2.33;;
3589;SDS011;1809;48.470;9.226;2023-03-19T08:42:36;2.23;;;1.90;;
3589;SDS011;1809;48.470;9.226;2023-03-19T08:45:06;1.83;;;1.73;;
3589;SDS011;1809;48.470;9.226;2023-03-19T08:47:35;4.33;;;2.10;;
3589;SDS011;1809;48.470;9.226;2023-03-19T08:50:01;2.27;;;2.07;;
3589;SDS011;1809;48.470;9.226;2023-03-19T08:52:31;2.93;;;2.20;;
3589;SDS011;1809;48.470;9.226;2023-03-19T08:54:57;5.40;;;2.13;;
3589;SDS011;1809;48.470;9.226;2023-03-19T08:57:23;2.57;;;2.30;;
3589;SDS011;1809;48.470;9.226;2023-03-19T08:59:54;3.43;;;2.47;;
3589;SDS011;1809;48.470;9.226;2023-03-19T09:02:29;2.13;;;1.90;;
3589;SDS011;1809;48.470;9.226;2023-03-19T09:04:55;3.07;;;2.10;;
3589;SDS011;1809;48.470;9.226;2023-03-19T09:07:26;2.30;;;2.10;;
3589;SDS011;1809;48.470;9.226;2023-03-19T09:09:51;3.93;;;2.80;;
3589;SDS011;1809;48.470;9.226;2023-03-19T09:12:17;3.47;;;2.50;;
3589;SDS011;1809;48.470;9.226;2023-03-19T09:14:42;3.63;;;2.20;;
3589;SDS011;1809;48.470;9.226;2023-03-19T09:17:11;3.50;;;2.40;;
3589;SDS011;1809;48.470;9.226;2023-03-19T09:19:39;4.50;;;2.60;;
3589;SDS011;1809;48.470;9.226;2023-03-19T09:22:06;4.40;;;2.30;;
3589;SDS011;1809;48.470;9.226;2023-03-19T09:24:34;3.10;;;2.80;;
3589;SDS011;1809;48.470;9.226;2023-03-19T09:27:00;3.27;;;2.43;;
3589;SDS011;1809;48.470;9.226;2023-03-19T09:29:30;2.87;;;2.60;;
3589;SDS011;1809;48.470;9.226;2023-03-19T09:31:55;2.80;;;2.47;;
3589;SDS011;1809;48.470;9.226;2023-03-19T09:34:21;3.57;;;2.30;;
3589;SDS011;1809;48.470;9.226;2023-03-19T09:36:46;3.23;;;2.27;;
3589;SDS011;1809;48.470;9.226;2023-03-19T09:39:12;4.53;;;3.07;;
3589;SDS011;1809;48.470;9.226;2023-03-19T09:44:28;6.70;;;2.97;;
3589;SDS011;1809;48.470;9.226;2023-03-19T09:49:44;3.83;;;2.50;;
3589;SDS011;1809;48.470;9.226;2023-03-19T09:57:41;7.43;;;3.40;;
3589;SDS011;1809;48.470;9.226;2023-03-19T10:00:52;3.30;;;2.70;;
3589;SDS011;1809;48.470;9.226;2023-03-19T10:05:52;4.53;;;2.73;;
3589;SDS011;1809;48.470;9.226;2023-03-19T10:14:05;3.30;;;2.97;;
3589;SDS011;1809;48.470;9.226;2023-03-19T10:16:41;6.83;;;4.23;;
3589;SDS011;1809;48.470;9.226;2023-03-19T10:19:11;7.40;;;5.50;;
3589;SDS011;1809;48.470;9.226;2023-03-19T10:24:17;3.30;;;2.83;;
3589;SDS011;1809;48.470;9.226;2023-03-19T10:26:49;3.30;;;2.47;;
3589;SDS011;1809;48.470;9.226;2023-03-19T10:29:25;9.20;;;2.50;;
3589;SDS011;1809;48.470;9.226;2023-03-19T10:34:37;9.10;;;3.30;;
3589;SDS011;1809;48.470;9.226;2023-03-19T10:39:45;3.80;;;3.27;;
3589;SDS011;1809;48.470;9.226;2023-03-19T10:42:33;6.87;;;2.97;;
3589;SDS011;1809;48.470;9.226;2023-03-19T10:45:42;2.80;;;2.50;;
3589;SDS011;1809;48.470;9.226;2023-03-19T10:48:11;5.90;;;2.10;;
3589;SDS011;1809;48.470;9.226;2023-03-19T10:50:49;2.63;;;2.40;;
3589;SDS011;1809;48.470;9.226;2023-03-19T10:55:54;7.00;;;2.80;;
3589;SDS011;1809;48.470;9.226;2023-03-19T10:58:22;2.83;;;2.57;;
3589;SDS011;1809;48.470;9.226;2023-03-19T11:00:58;2.23;;;2.13;;
3589;SDS011;1809;48.470;9.226;2023-03-19T11:03:37;3.40;;;2.80;;
3589;SDS011;1809;48.470;9.226;2023-03-19T11:06:24;3.83;;;2.03;;
3589;SDS011;1809;48.470;9.226;2023-03-19T11:08:57;3.67;;;2.60;;
3589;SDS011;1809;48.470;9.226;2023-03-19T11:14:20;2.57;;;2.37;;
3589;SDS011;1809;48.470;9.226;2023-03-19T11:19:32;6.37;;;3.00;;
3589;SDS011;1809;48.470;9.226;2023-03-19T11:24:37;2.57;;;2.03;;
3589;SDS011;1809;48.470;9.226;2023-03-19T11:27:05;3.37;;;2.37;;
3589;SDS011;1809;48.470;9.226;2023-03-19T11:29:39;2.73;;;2.40;;
3589;SDS011;1809;48.470;9.226;2023-03-19T11:34:44;3.80;;;2.50;;
3589;SDS011;1809;48.470;9.226;2023-03-19T11:46:08;2.20;;;2.10;;
3589;SDS011;1809;48.470;9.226;2023-03-19T11:51:31;4.00;;;2.77;;
3589;SDS011;1809;48.470;9.226;2023-03-19T11:54:16;2.50;;;2.30;;
3589;SDS011;1809;48.470;9.226;2023-03-19T11:57:07;2.23;;;2.03;;
3589;SDS011;1809;48.470;9.226;2023-03-19T12:05:20;3.10;;;2.30;;
3589;SDS011;1809;48.470;9.226;2023-03-19T12:08:14;3.10;;;1.93;;
3589;SDS011;1809;48.470;9.226;2023-03-19T12:10:58;2.60;;;2.03;;
3589;SDS011;1809;48.470;9.226;2023-03-19T12:13:41;3.33;;;2.33;;
3589;SDS011;1809;48.470;9.226;2023-03-19T12:25:09;4.30;;;2.20;;
3589;SDS011;1809;48.470;9.226;2023-03-19T12:35:32;2.40;;;2.20;;
3589;SDS011;1809;48.470;9.226;2023-03-19T12:38:02;2.50;;;1.93;;
3589;SDS011;1809;48.470;9.226;2023-03-19T12:40:36;2.03;;;1.93;;
3589;SDS011;1809;48.470;9.226;2023-03-19T12:43:11;8.20;;;3.63;;
3589;SDS011;1809;48.470;9.226;2023-03-19T12:45:43;2.60;;;2.40;;
3589;SDS011;1809;48.470;9.226;2023-03-19T12:48:20;3.80;;;1.90;;
3589;SDS011;1809;48.470;9.226;2023-03-19T12:50:51;3.47;;;2.50;;
3589;SDS011;1809;48.470;9.226;2023-03-19T12:53:34;9.33;;;3.80;;
3589;SDS011;1809;48.470;9.226;2023-03-19T12:56:30;2.20;;;2.10;;
3589;SDS011;1809;48.470;9.226;2023-03-19T12:59:12;2.00;;;1.90;;
3589;SDS011;1809;48.470;9.226;2023-03-19T13:01:42;5.80;;;2.07;;
3589;SDS011;1809;48.470;9.226;2023-03-19T13:04:13;2.90;;;2.13;;
3589;SDS011;1809;48.470;9.226;2023-03-19T13:09:37;1.90;;;1.63;;
3589;SDS011;1809;48.470;9.226;2023-03-19T13:12:21;7.40;;;6.70;;
3589;SDS011;1809;48.470;9.226;2023-03-19T13:14:57;3.40;;;3.10;;
3589;SDS011;1809;48.470;9.226;2023-03-19T13:20:19;4.27;;;3.60;;
3589;SDS011;1809;48.470;9.226;2023-03-19T13:22:56;2.60;;;2.40;;
3589;SDS011;1809;48.470;9.226;2023-03-19T13:25:28;3.07;;;2.63;;
3589;SDS011;1809;48.470;9.226;2023-03-19T13:27:57;7.00;;;6.23;;
3589;SDS011;1809;48.470;9.226;2023-03-19T13:30:22;6.73;;;2.50;;
3589;SDS011;1809;48.470;9.226;2023-03-19T13:32:51;11.93;;;6.37;;
3589;SDS011;1809;48.470;9.226;2023-03-19T13:35:26;7.80;;;2.73;;
3589;SDS011;1809;48.470;9.226;2023-03-19T13:38:00;2.97;;;2.67;;
3589;SDS011;1809;48.470;9.226;2023-03-19T13:40:44;5.20;;;2.20;;
3589;SDS011;1809;48.470;9.226;2023-03-19T13:46:01;2.63;;;2.33;;
3589;SDS011;1809;48.470;9.226;2023-03-19T13:51:39;10.33;;;3.60;;
3589;SDS011;1809;48.470;9.226;2023-03-19T13:53:40;2.13;;;1.93;;
3589;SDS011;1809;48.470;9.226;2023-03-19T13:56:16;7.80;;;2.97;;
3589;SDS011;1809;48.470;9.226;2023-03-19T13:58:47;3.70;;;3.40;;
3589;SDS011;1809;48.470;9.226;2023-03-19T14:12:10;7.83;;;2.90;;
3589;SDS011;1809;48.470;9.226;2023-03-19T14:14:51;4.63;;;2.57;;
3589;SDS011;1809;48.470;9.226;2023-03-19T14:17:30;5.20;;;2.50;;
3589;SDS011;1809;48.470;9.226;2023-03-19T14:20:04;3.13;;;2.20;;
3589;SDS011;1809;48.470;9.226;2023-03-19T14:22:54;4.37;;;3.90;;
3589;SDS011;1809;48.470;9.226;2023-03-19T14:25:27;6.23;;;3.73;;
3589;SDS011;1809;48.470;9.226;2023-03-19T14:29:10;3.47;;;2.83;;
3589;SDS011;1809;48.470;9.226;2023-03-19T14:31:46;2.80;;;2.30;;
3589;SDS011;1809;48.470;9.226;2023-03-19T14:34:26;4.33;;;2.23;;
3589;SDS011;1809;48.470;9.226;2023-03-19T14:37:03;1.70;;;1.60;;
3589;SDS011;1809;48.470;9.226;2023-03-19T14:39:56;4.13;;;2.10;;
3589;SDS011;1809;48.470;9.226;2023-03-19T14:48:19;2.07;;;1.87;;
3589;SDS011;1809;48.470;9.226;2023-03-19T14:53:53;2.47;;;2.27;;
3589;SDS011;1809;48.470;9.226;2023-03-19T14:56:29;2.43;;;2.23;;
3589;SDS011;1809;48.470;9.226;2023-03-19T14:58:56;2.20;;;2.10;;
3589;SDS011;1809;48.470;9.226;2023-03-19T15:01:27;2.83;;;2.50;;
3589;SDS011;1809;48.470;9.226;2023-03-19T15:03:54;2.20;;;2.00;;
3589;SDS011;1809;48.470;9.226;2023-03-19T15:06:23;3.43;;;1.93;;
3589;SDS011;1809;48.470;9.226;2023-03-19T15:08:49;3.47;;;2.10;;
3589;SDS011;1809;48.470;9.226;2023-03-19T15:11:19;3.47;;;1.63;;
3589;SDS011;1809;48.470;9.226;2023-03-19T15:16:46;4.80;;;3.20;;
3589;SDS011;1809;48.470;9.226;2023-03-19T15:19:35;2.13;;;1.93;;
3589;SDS011;1809;48.470;9.226;2023-03-19T15:22:11;10.33;;;2.10;;
3589;SDS011;1809;48.470;9.226;2023-03-19T15:24:40;4.87;;;2.47;;
3589;SDS011;1809;48.470;9.226;2023-03-19T15:27:16;2.80;;;2.60;;
3589;SDS011;1809;48.470;9.226;2023-03-19T15:29:42;2.40;;;1.77;;
3589;SDS011;1809;48.470;9.226;2023-03-19T15:32:08;3.13;;;2.00;;
3589;SDS011;1809;48.470;9.226;2023-03-19T15:34:34;1.87;;;1.77;;
3589;SDS011;1809;48.470;9.226;2023-03-19T15:37:02;3.43;;;2.50;;
3589;SDS011;1809;48.470;9.226;2023-03-19T15:39:33;3.90;;;3.20;;
3589;SDS011;1809;48.470;9.226;2023-03-19T15:42:02;4.77;;;4.37;;
3589;SDS011;1809;48.470;9.226;2023-03-19T15:44:33;5.67;;;3.70;;
3589;SDS011;1809;48.470;9.226;2023-03-19T15:47:04;8.97;;;2.70;;
3589;SDS011;1809;48.470;9.226;2023-03-19T15:49:35;2.30;;;2.10;;
3589;SDS011;1809;48.470;9.226;2023-03-19T15:52:04;2.13;;;2.00;;
3589;SDS011;1809;48.470;9.226;2023-03-19T15:54:32;2.07;;;1.97;;
3589;SDS011;1809;48.470;9.226;2023-03-19T15:56:58;2.83;;;0.87;;
3589;SDS011;1809;48.470;9.226;2023-03-19T15:59:25;2.03;;;1.30;;
3589;SDS011;1809;48.470;9.226;2023-03-19T16:02:01;0.80;;;0.80;;
3589;SDS011;1809;48.470;9.226;2023-03-19T16:04:28;3.60;;;1.10;;
3589;SDS011;1809;48.470;9.226;2023-03-19T16:06:56;1.60;;;1.43;;
3589;SDS011;1809;48.470;9.226;2023-03-19T16:09:24;1.50;;;1.40;;
3589;SDS011;1809;48.470;9.226;2023-03-19T16:11:56;2.07;;;1.00;;
3589;SDS011;1809;48.470;9.226;2023-03-19T16:14:26;2.60;;;1.20;;
3589;SDS011;1809;48.470;9.226;2023-03-19T16:17:00;1.50;;;1.40;;
3589;SDS011;1809;48.470;9.226;2023-03-19T16:19:28;2.57;;;1.73;;
3589;SDS011;1809;48.470;9.226;2023-03-19T16:21:56;1.87;;;1.73;;
3589;SDS011;1809;48.470;9.226;2023-03-19T16:26:56;2.30;;;1.30;;
3589;SDS011;1809;48.470;9.226;2023-03-19T16:31:51;2.10;;;1.90;;
3589;SDS011;1809;48.470;9.226;2023-03-19T16:34:35;2.67;;;2.47;;
3589;SDS011;1809;48.470;9.226;2023-03-19T16:42:38;2.03;;;1.93;;
3589;SDS011;1809;48.470;9.226;2023-03-19T16:47:38;2.40;;;2.20;;
3589;SDS011;1809;48.470;9.226;2023-03-19T16:50:04;2.83;;;1.50;;
3589;SDS011;1809;48.470;9.226;2023-03-19T16:52:30;5.00;;;2.20;;
3589;SDS011;1809;48.470;9.226;2023-03-19T16:54:57;2.77;;;2.43;;
3589;SDS011;1809;48.470;9.226;2023-03-19T16:57:23;3.33;;;3.10;;
3589;SDS011;1809;48.470;9.226;2023-03-19T16:59:49;2.67;;;2.47;;
3589;SDS011;1809;48.470;9.226;2023-03-19T17:02:15;6.10;;;3.53;;
3589;SDS011;1809;48.470;9.226;2023-03-19T17:04:41;2.37;;;2.20;;
3589;SDS011;1809;48.470;9.226;2023-03-19T17:07:07;5.10;;;2.83;;
3589;SDS011;1809;48.470;9.226;2023-03-19T17:09:33;2.97;;;2.67;;
3589;SDS011;1809;48.470;9.226;2023-03-19T17:11:59;3.17;;;2.93;;
3589;SDS011;1809;48.470;9.226;2023-03-19T17:14:25;3.93;;;2.80;;
3589;SDS011;1809;48.470;9.226;2023-03-19T17:16:51;4.40;;;4.00;;
3589;SDS011;1809;48.470;9.226;2023-03-19T17:19:22;3.47;;;3.17;;
3589;SDS011;1809;48.470;9.226;2023-03-19T17:21:51;3.57;;;2.93;;
3589;SDS011;1809;48.470;9.226;2023-03-19T17:26:47;11.60;;;4.07;;
3589;SDS011;1809;48.470;9.226;2023-03-19T17:29:13;4.23;;;3.63;;
3589;SDS011;1809;48.470;9.226;2023-03-19T17:31:38;11.30;;;4.23;;
3589;SDS011;1809;48.470;9.226;2023-03-19T17:34:05;7.50;;;4.80;;
3589;SDS011;1809;48.470;9.226;2023-03-19T17:36:35;6.03;;;3.87;;